Time;durP1;ratioP1;P1;durP2;ratioP2;P2;SDS_P1;SDS_P2;PMS_P1;PMS_P2;Temp;Humidity;BMP_temperature;BMP_pressure;BME280_temperature;BME280_humidity;BME280_pressure;Samples;Min_cycle;Max_cycle;Signal;HPM_P1;HPM_P2
2021/05/07 00:01:35;;;;;;;9.05;5.82;;;;;;;;;;3616718;39;20046;-60
2021/05/07 00:04:02;;;;;;;6.00;5.18;;;;;;;;;;3616373;39;20471;-60
2021/05/07 00:06:29;;;;;;;6.88;5.10;;;;;;;;;;3617478;39;20047;-60
2021/05/07 00:08:54;;;;;;;8.63;5.72;;;;;;;;;;3617364;39;20455;-60
2021/05/07 00:11:20;;;;;;;7.60;5.35;;;;;;;;;;3616552;39;20055;-60
2021/05/07 00:13:47;;;;;;;6.65;5.25;;;;;;;;;;3616849;39;20046;-60
2021/05/07 00:16:13;;;;;;;7.10;5.28;;;;;;;;;;3616903;39;20051;-60
2021/05/07 00:18:39;;;;;;;6.35;4.95;;;;;;;;;;3607055;39;20028;-60
2021/05/07 00:21:05;;;;;;;7.15;5.53;;;;;;;;;;3616588;39;20043;-60
2021/05/07 00:23:31;;;;;;;10.70;5.35;;;;;;;;;;3616619;39;20343;-60
2021/05/07 00:25:57;;;;;;;7.88;5.55;;;;;;;;;;3617021;39;20108;-60
2021/05/07 00:28:22;;;;;;;6.97;5.47;;;;;;;;;;3615999;39;20362;-60
2021/05/07 00:30:48;;;;;;;6.45;5.22;;;;;;;;;;3616652;39;20034;-60
2021/05/07 00:33:14;;;;;;;5.80;4.85;;;;;;;;;;3617095;39;20071;-60
2021/05/07 00:35:40;;;;;;;7.90;5.07;;;;;;;;;;3616599;39;20031;-60
2021/05/07 00:38:06;;;;;;;5.88;4.72;;;;;;;;;;3615225;39;20050;-60
2021/05/07 00:40:32;;;;;;;6.88;4.90;;;;;;;;;;3616402;39;20027;-60
2021/05/07 00:42:58;;;;;;;9.63;6.35;;;;;;;;;;3616677;39;20637;-60
2021/05/07 00:45:24;;;;;;;7.07;5.78;;;;;;;;;;3616485;39;20153;-60
2021/05/07 00:47:56;;;;;;;6.30;4.55;;;;;;;;;;3616187;39;20770;-60
2021/05/07 00:50:27;;;;;;;5.20;4.20;;;;;;;;;;3616600;39;20032;-60
2021/05/07 00:52:58;;;;;;;5.57;4.57;;;;;;;;;;3616314;39;20095;-60
2021/05/07 00:55:24;;;;;;;7.68;5.20;;;;;;;;;;3616316;39;20281;-60
2021/05/07 00:57:50;;;;;;;6.93;4.53;;;;;;;;;;3615290;39;20042;-60
2021/05/07 01:00:16;;;;;;;6.07;4.75;;;;;;;;;;3616509;39;20023;-60
2021/05/07 01:02:41;;;;;;;6.75;4.10;;;;;;;;;;3616530;39;20051;-60
2021/05/07 01:05:08;;;;;;;5.75;4.32;;;;;;;;;;3616320;39;20101;-60
2021/05/07 01:07:34;;;;;;;5.57;3.72;;;;;;;;;;3616556;39;20043;-60
2021/05/07 01:10:03;;;;;;;5.72;4.75;;;;;;;;;;3616903;39;20282;-60
2021/05/07 01:12:29;;;;;;;7.90;4.60;;;;;;;;;;3605359;39;20039;-60
2021/05/07 01:15:10;;;;;;;4.63;3.70;;;;;;;;;;3616193;39;20027;-59
2021/05/07 01:17:38;;;;;;;5.97;3.88;;;;;;;;;;3617217;39;20028;-60
2021/05/07 01:20:06;;;;;;;5.35;4.07;;;;;;;;;;3617743;39;20031;-60
2021/05/07 01:22:31;;;;;;;5.35;3.58;;;;;;;;;;3616452;39;20019;-60
2021/05/07 01:24:57;;;;;;;7.53;4.22;;;;;;;;;;3617264;39;20067;-60
2021/05/07 01:27:22;;;;;;;5.07;3.38;;;;;;;;;;3618012;39;20354;-59
2021/05/07 01:29:48;;;;;;;5.18;3.88;;;;;;;;;;3618286;39;20032;-60
2021/05/07 01:32:13;;;;;;;6.45;3.97;;;;;;;;;;3618054;39;20359;-60
2021/05/07 01:34:38;;;;;;;5.57;3.67;;;;;;;;;;3617167;39;20038;-60
2021/05/07 01:37:04;;;;;;;5.00;3.33;;;;;;;;;;3608355;39;20039;-60
2021/05/07 01:39:29;;;;;;;5.85;4.00;;;;;;;;;;3617566;39;20039;-60
2021/05/07 01:41:55;;;;;;;5.00;3.80;;;;;;;;;;3616788;39;20063;-60
2021/05/07 01:44:20;;;;;;;6.47;4.00;;;;;;;;;;3617955;39;20408;-60
2021/05/07 01:46:45;;;;;;;5.20;3.70;;;;;;;;;;3617833;39;20046;-60
2021/05/07 01:49:11;;;;;;;5.68;4.05;;;;;;;;;;3617315;39;20066;-60
2021/05/07 01:51:36;;;;;;;5.80;3.63;;;;;;;;;;3617648;39;20039;-60
2021/05/07 01:54:02;;;;;;;5.13;4.00;;;;;;;;;;3617504;39;20043;-60
2021/05/07 01:56:27;;;;;;;4.93;3.58;;;;;;;;;;3617409;39;20055;-60
2021/05/07 01:58:52;;;;;;;5.43;3.92;;;;;;;;;;3616544;39;20051;-60
2021/05/07 02:01:18;;;;;;;5.25;4.15;;;;;;;;;;3617873;39;20054;-60
2021/05/07 02:03:43;;;;;;;6.00;4.20;;;;;;;;;;3617352;39;20051;-60
2021/05/07 02:06:09;;;;;;;6.13;4.20;;;;;;;;;;3617662;39;20070;-60
2021/05/07 02:08:35;;;;;;;5.32;3.72;;;;;;;;;;3617431;39;20136;-62
2021/05/07 02:11:00;;;;;;;5.28;4.13;;;;;;;;;;3617434;39;20086;-60
2021/05/07 02:13:25;;;;;;;5.38;4.05;;;;;;;;;;3617513;39;20039;-60
2021/05/07 02:15:51;;;;;;;5.53;3.85;;;;;;;;;;3616935;39;20043;-60
2021/05/07 02:18:16;;;;;;;5.70;4.00;;;;;;;;;;3618013;39;20031;-60
2021/05/07 02:20:43;;;;;;;5.93;4.20;;;;;;;;;;3617670;39;20065;-60
2021/05/07 02:23:09;;;;;;;7.95;3.97;;;;;;;;;;3606111;39;20385;-60
2021/05/07 02:25:35;;;;;;;5.88;3.90;;;;;;;;;;3617617;39;20059;-60
2021/05/07 02:28:00;;;;;;;5.93;4.40;;;;;;;;;;3617481;39;20042;-60
2021/05/07 02:30:28;;;;;;;6.32;4.15;;;;;;;;;;3617202;39;20030;-60
2021/05/07 02:32:54;;;;;;;5.00;3.42;;;;;;;;;;3613336;39;20042;-60
2021/05/07 02:35:21;;;;;;;5.82;3.90;;;;;;;;;;3617076;39;20035;-60
2021/05/07 02:37:46;;;;;;;5.75;4.15;;;;;;;;;;3617747;39;20308;-60
2021/05/07 02:40:12;;;;;;;6.28;4.20;;;;;;;;;;3616689;39;20028;-60
2021/05/07 02:42:38;;;;;;;5.90;4.15;;;;;;;;;;3617543;39;20027;-60
2021/05/07 02:45:06;;;;;;;6.47;4.38;;;;;;;;;;3617354;39;20027;-60
2021/05/07 02:47:32;;;;;;;6.65;4.32;;;;;;;;;;3617041;39;20389;-59
2021/05/07 02:49:58;;;;;;;6.03;4.30;;;;;;;;;;3607051;39;20054;-60
2021/05/07 02:52:24;;;;;;;5.07;3.92;;;;;;;;;;3617654;39;20019;-60
2021/05/07 02:54:49;;;;;;;7.85;4.50;;;;;;;;;;3617536;39;20047;-59
2021/05/07 02:57:15;;;;;;;5.55;4.28;;;;;;;;;;3617617;39;20054;-60
2021/05/07 02:59:40;;;;;;;6.30;4.07;;;;;;;;;;3616624;39;20027;-60
2021/05/07 03:02:06;;;;;;;5.93;4.20;;;;;;;;;;3617433;39;20606;-60
2021/05/07 03:04:31;;;;;;;5.35;3.90;;;;;;;;;;3617557;39;20024;-60
2021/05/07 03:06:56;;;;;;;5.68;4.47;;;;;;;;;;3616880;39;20827;-60
2021/05/07 03:09:22;;;;;;;6.70;4.78;;;;;;;;;;3616747;39;20088;-60
2021/05/07 03:11:47;;;;;;;6.47;4.50;;;;;;;;;;3617270;39;20282;-60
2021/05/07 03:14:13;;;;;;;5.55;4.78;;;;;;;;;;3617213;39;20081;-60
2021/05/07 03:16:39;;;;;;;6.57;4.80;;;;;;;;;;3615966;39;20042;-60
2021/05/07 03:19:04;;;;;;;7.28;5.75;;;;;;;;;;3617390;39;20027;-59
2021/05/07 03:21:30;;;;;;;11.55;5.72;;;;;;;;;;3616881;39;20043;-60
2021/05/07 03:23:55;;;;;;;7.65;5.65;;;;;;;;;;3617118;39;20050;-60
2021/05/07 03:26:21;;;;;;;6.75;5.53;;;;;;;;;;3616294;39;20035;-60
2021/05/07 03:28:46;;;;;;;5.95;4.65;;;;;;;;;;3617217;39;20423;-60
2021/05/07 03:31:12;;;;;;;6.40;5.40;;;;;;;;;;3617171;39;20035;-60
2021/05/07 03:33:38;;;;;;;7.00;5.53;;;;;;;;;;3615119;39;20362;-60
2021/05/07 03:36:04;;;;;;;6.13;5.00;;;;;;;;;;3616774;39;20038;-60
2021/05/07 03:38:30;;;;;;;7.72;5.45;;;;;;;;;;3616528;39;20104;-60
2021/05/07 03:40:55;;;;;;;6.55;5.63;;;;;;;;;;3616367;39;20040;-60
2021/05/07 03:43:21;;;;;;;6.32;5.53;;;;;;;;;;3617199;39;20055;-60
2021/05/07 03:45:46;;;;;;;10.80;7.53;;;;;;;;;;3614571;39;20516;-60
2021/05/07 03:48:15;;;;;;;10.05;7.28;;;;;;;;;;3613554;39;20621;-61
2021/05/07 03:50:41;;;;;;;8.25;7.45;;;;;;;;;;3614520;39;20583;-60
2021/05/07 03:53:09;;;;;;;8.75;7.32;;;;;;;;;;3613809;39;20042;-60
2021/05/07 03:55:34;;;;;;;12.02;8.40;;;;;;;;;;3616693;39;20050;-60
2021/05/07 03:58:00;;;;;;;10.40;9.18;;;;;;;;;;3616473;39;20079;-60
2021/05/07 04:00:25;;;;;;;10.15;9.15;;;;;;;;;;3615870;39;20406;-60
2021/05/07 04:02:51;;;;;;;10.63;9.52;;;;;;;;;;3616827;39;20027;-60
2021/05/07 04:05:16;;;;;;;11.23;10.10;;;;;;;;;;3616832;39;20031;-60
2021/05/07 04:07:42;;;;;;;11.77;9.70;;;;;;;;;;3617164;39;20042;-60
2021/05/07 04:10:15;;;;;;;11.77;9.98;;;;;;;;;;3616011;39;20251;-60
2021/05/07 04:15:10;;;;;;;12.15;10.68;;;;;;;;;;3616824;39;20078;-60
2021/05/07 04:17:35;;;;;;;13.52;12.13;;;;;;;;;;3616921;39;20043;-60
2021/05/07 04:20:01;;;;;;;16.00;12.00;;;;;;;;;;3617044;39;20293;-60
2021/05/07 04:22:26;;;;;;;13.77;12.18;;;;;;;;;;3615867;39;20397;-60
2021/05/07 04:24:52;;;;;;;13.35;12.05;;;;;;;;;;3616597;39;20355;-60
2021/05/07 04:27:17;;;;;;;14.48;12.90;;;;;;;;;;3616128;39;20046;-60
2021/05/07 04:29:43;;;;;;;14.13;12.18;;;;;;;;;;3615858;39;20055;-60
2021/05/07 04:32:08;;;;;;;14.20;12.18;;;;;;;;;;3615926;39;20118;-60
2021/05/07 04:34:33;;;;;;;13.65;12.27;;;;;;;;;;3616633;39;20365;-60
2021/05/07 04:36:59;;;;;;;12.98;11.60;;;;;;;;;;3616605;39;20031;-60
2021/05/07 04:39:24;;;;;;;15.38;11.68;;;;;;;;;;3616280;39;20032;-60
2021/05/07 04:41:50;;;;;;;12.88;11.43;;;;;;;;;;3615495;39;20042;-60
2021/05/07 04:44:15;;;;;;;14.10;12.65;;;;;;;;;;3615915;39;20035;-60
2021/05/07 04:46:40;;;;;;;13.68;11.73;;;;;;;;;;3607005;39;20039;-60
2021/05/07 04:49:06;;;;;;;13.88;11.90;;;;;;;;;;3616072;39;20063;-60
2021/05/07 04:51:32;;;;;;;13.23;11.88;;;;;;;;;;3616311;39;20027;-60
2021/05/07 04:53:59;;;;;;;13.38;12.05;;;;;;;;;;3617016;39;20039;-60
2021/05/07 04:56:25;;;;;;;16.20;11.73;;;;;;;;;;3616899;39;20051;-60
2021/05/07 04:58:50;;;;;;;13.35;11.60;;;;;;;;;;3607486;39;20080;-60
2021/05/07 05:01:16;;;;;;;12.60;11.38;;;;;;;;;;3616434;39;20035;-60
2021/05/07 05:03:41;;;;;;;15.68;12.27;;;;;;;;;;3616213;39;20039;-60
2021/05/07 05:06:07;;;;;;;12.93;11.13;;;;;;;;;;3615451;39;20127;-60
2021/05/07 05:08:32;;;;;;;11.13;9.95;;;;;;;;;;3616339;39;20119;-60
2021/05/07 05:10:58;;;;;;;15.02;11.93;;;;;;;;;;3616174;39;20378;-60
2021/05/07 05:13:25;;;;;;;13.85;11.13;;;;;;;;;;3616159;39;20035;-60
2021/05/07 05:15:52;;;;;;;15.15;11.73;;;;;;;;;;3606195;39;20075;-60
2021/05/07 05:18:30;;;;;;;12.93;11.35;;;;;;;;;;3615428;39;20532;-60
2021/05/07 05:21:01;;;;;;;15.18;13.55;;;;;;;;;;3615140;39;20028;-60
2021/05/07 05:23:27;;;;;;;14.50;13.07;;;;;;;;;;3615373;39;20368;-60
2021/05/07 05:25:53;;;;;;;14.50;12.98;;;;;;;;;;3615203;39;20121;-60
2021/05/07 05:28:19;;;;;;;17.25;13.10;;;;;;;;;;3616114;39;20031;-60
2021/05/07 05:30:45;;;;;;;17.45;13.65;;;;;;;;;;3615572;39;20036;-60
2021/05/07 05:33:11;;;;;;;15.32;13.13;;;;;;;;;;3615725;39;20028;-60
2021/05/07 05:35:36;;;;;;;16.25;14.55;;;;;;;;;;3616583;39;20108;-61
2021/05/07 05:38:03;;;;;;;15.98;13.85;;;;;;;;;;3616362;39;20693;-60
2021/05/07 05:40:28;;;;;;;17.00;15.30;;;;;;;;;;3615928;39;20069;-60
2021/05/07 05:42:54;;;;;;;16.42;14.73;;;;;;;;;;3615385;39;20347;-60
2021/05/07 05:45:21;;;;;;;17.02;15.02;;;;;;;;;;3615666;39;20069;-60
2021/05/07 05:47:47;;;;;;;16.85;15.15;;;;;;;;;;3606397;39;20059;-60
2021/05/07 05:50:12;;;;;;;15.88;14.18;;;;;;;;;;3615728;39;20341;-60
2021/05/07 05:52:37;;;;;;;16.63;13.68;;;;;;;;;;3615391;39;20032;-60
2021/05/07 05:55:03;;;;;;;15.73;13.52;;;;;;;;;;3615783;39;20063;-60
2021/05/07 05:57:29;;;;;;;16.15;14.05;;;;;;;;;;3615747;39;20062;-60
2021/05/07 05:59:54;;;;;;;17.92;14.55;;;;;;;;;;3615503;39;20127;-60
2021/05/07 06:02:20;;;;;;;16.40;13.38;;;;;;;;;;3616418;39;20050;-60
2021/05/07 06:04:46;;;;;;;18.40;14.25;;;;;;;;;;3608079;39;20039;-60
2021/05/07 06:07:11;;;;;;;16.83;12.98;;;;;;;;;;3615931;39;20422;-59
2021/05/07 06:09:37;;;;;;;15.55;13.55;;;;;;;;;;3616953;39;20031;-60
2021/05/07 06:12:06;;;;;;;16.17;13.82;;;;;;;;;;3617568;39;20035;-60
2021/05/07 06:14:33;;;;;;;20.35;14.02;;;;;;;;;;3613874;39;20387;-60
2021/05/07 06:16:58;;;;;;;15.70;14.00;;;;;;;;;;3617426;39;20035;-60
2021/05/07 06:19:24;;;;;;;13.93;12.52;;;;;;;;;;3616996;39;20039;-60
2021/05/07 06:21:49;;;;;;;14.27;12.55;;;;;;;;;;3617045;39;20039;-60
2021/05/07 06:24:15;;;;;;;16.65;12.95;;;;;;;;;;3616863;39;20047;-60
2021/05/07 06:26:40;;;;;;;15.27;12.20;;;;;;;;;;3617260;39;20131;-60
2021/05/07 06:29:06;;;;;;;13.00;11.23;;;;;;;;;;3617588;39;20027;-60
2021/05/07 06:31:31;;;;;;;13.02;11.52;;;;;;;;;;3616545;39;20034;-60
2021/05/07 06:33:57;;;;;;;16.42;12.15;;;;;;;;;;3617656;39;20039;-60
2021/05/07 06:36:22;;;;;;;12.27;10.98;;;;;;;;;;3608041;39;20371;-60
2021/05/07 06:38:48;;;;;;;14.55;12.23;;;;;;;;;;3616802;39;20419;-60
2021/05/07 06:41:13;;;;;;;13.85;12.05;;;;;;;;;;3616347;39;20035;-60
2021/05/07 06:43:39;;;;;;;14.23;12.02;;;;;;;;;;3616887;39;20031;-60
2021/05/07 06:46:04;;;;;;;11.95;10.60;;;;;;;;;;3617206;39;20115;-60
2021/05/07 06:48:30;;;;;;;11.20;10.00;;;;;;;;;;3616941;39;20027;-60
2021/05/07 06:50:55;;;;;;;12.55;9.80;;;;;;;;;;3616427;39;20031;-60
2021/05/07 06:53:22;;;;;;;11.77;9.95;;;;;;;;;;3611777;39;20034;-61
2021/05/07 06:55:47;;;;;;;13.07;10.05;;;;;;;;;;3613857;39;20035;-60
2021/05/07 06:58:12;;;;;;;13.82;10.27;;;;;;;;;;3617501;39;20380;-60
2021/05/07 07:00:38;;;;;;;11.73;9.75;;;;;;;;;;3615422;39;20386;-60
2021/05/07 07:03:03;;;;;;;15.63;9.93;;;;;;;;;;3614028;39;20039;-60
2021/05/07 07:05:29;;;;;;;10.82;9.73;;;;;;;;;;3612660;39;20044;-60
2021/05/07 07:07:54;;;;;;;16.00;9.63;;;;;;;;;;3615688;39;20082;-60
2021/05/07 07:10:21;;;;;;;10.93;9.18;;;;;;;;;;3613633;39;20031;-60
2021/05/07 07:12:47;;;;;;;14.70;9.77;;;;;;;;;;3613317;39;20035;-60
2021/05/07 07:15:13;;;;;;;11.45;8.57;;;;;;;;;;3612621;39;20317;-60
2021/05/07 07:17:39;;;;;;;11.63;9.48;;;;;;;;;;3614840;39;20088;-60
2021/05/07 07:20:05;;;;;;;13.15;9.50;;;;;;;;;;3612356;39;20141;-60
2021/05/07 07:22:30;;;;;;;10.20;8.45;;;;;;;;;;3613927;39;20030;-60
2021/05/07 07:24:55;;;;;;;14.20;9.27;;;;;;;;;;3613150;39;20027;-60
2021/05/07 07:27:21;;;;;;;11.20;8.38;;;;;;;;;;3614794;39;20135;-61
2021/05/07 07:29:47;;;;;;;10.15;8.57;;;;;;;;;;3615560;39;20042;-60
2021/05/07 07:32:12;;;;;;;11.55;7.70;;;;;;;;;;3614203;39;20411;-59
2021/05/07 07:34:38;;;;;;;9.50;8.48;;;;;;;;;;3613913;39;20043;-60
2021/05/07 07:37:03;;;;;;;15.93;9.32;;;;;;;;;;3612097;39;20540;-60
2021/05/07 07:39:29;;;;;;;13.18;9.25;;;;;;;;;;3614343;39;20565;-60
2021/05/07 07:41:54;;;;;;;11.32;8.65;;;;;;;;;;3616443;39;20046;-61
2021/05/07 07:44:20;;;;;;;9.35;8.30;;;;;;;;;;3616751;39;20039;-60
2021/05/07 07:46:46;;;;;;;14.20;9.15;;;;;;;;;;3616341;39;20424;-60
2021/05/07 07:49:11;;;;;;;9.13;7.50;;;;;;;;;;3613981;39;20094;-61
2021/05/07 07:51:38;;;;;;;11.45;8.45;;;;;;;;;;3614727;39;20035;-60
2021/05/07 07:54:04;;;;;;;9.02;7.80;;;;;;;;;;3615842;39;20367;-60
2021/05/07 07:56:30;;;;;;;11.13;8.52;;;;;;;;;;3616180;39;20087;-60
2021/05/07 07:58:56;;;;;;;11.27;8.05;;;;;;;;;;3616264;39;20045;-60
2021/05/07 08:01:21;;;;;;;9.63;7.85;;;;;;;;;;3616717;39;20055;-60
2021/05/07 08:03:47;;;;;;;10.55;7.85;;;;;;;;;;3616195;39;20047;-61
2021/05/07 08:06:12;;;;;;;10.02;6.60;;;;;;;;;;3616431;39;20051;-60
2021/05/07 08:08:38;;;;;;;8.85;6.90;;;;;;;;;;3616747;39;20057;-59
2021/05/07 08:11:03;;;;;;;8.30;6.90;;;;;;;;;;3617253;39;20120;-60
2021/05/07 08:13:29;;;;;;;9.07;7.03;;;;;;;;;;3616446;39;20031;-60
2021/05/07 08:15:54;;;;;;;10.05;7.35;;;;;;;;;;3617402;39;20034;-60
2021/05/07 08:18:20;;;;;;;10.27;8.23;;;;;;;;;;3617020;39;20055;-60
2021/05/07 08:20:45;;;;;;;9.27;7.47;;;;;;;;;;3616186;39;20031;-60
2021/05/07 08:23:10;;;;;;;10.35;6.75;;;;;;;;;;3616716;39;20115;-60
2021/05/07 08:25:36;;;;;;;8.77;7.22;;;;;;;;;;3616462;39;20050;-60
2021/05/07 08:28:01;;;;;;;9.38;7.20;;;;;;;;;;3615428;39;20419;-60
2021/05/07 08:30:27;;;;;;;9.55;7.28;;;;;;;;;;3614557;39;20315;-59
2021/05/07 08:32:52;;;;;;;9.45;6.97;;;;;;;;;;3616559;39;20050;-59
2021/05/07 08:35:18;;;;;;;11.82;7.43;;;;;;;;;;3616464;39;20051;-60
2021/05/07 08:37:43;;;;;;;9.88;8.02;;;;;;;;;;3615029;39;20066;-59
2021/05/07 08:40:14;;;;;;;10.65;6.55;;;;;;;;;;3615778;39;20035;-59
2021/05/07 08:42:40;;;;;;;9.55;7.43;;;;;;;;;;3615757;39;20039;-60
2021/05/07 08:45:06;;;;;;;10.43;8.20;;;;;;;;;;3616062;39;20076;-59
2021/05/07 08:47:34;;;;;;;9.82;7.28;;;;;;;;;;3615948;39;20047;-59
2021/05/07 08:50:00;;;;;;;8.18;7.38;;;;;;;;;;3607397;39;20115;-59
2021/05/07 08:52:26;;;;;;;8.75;7.18;;;;;;;;;;3613803;39;20016;-59
2021/05/07 08:54:52;;;;;;;7.85;6.80;;;;;;;;;;3607246;39;20047;-60
2021/05/07 08:57:18;;;;;;;10.55;7.40;;;;;;;;;;3615861;39;20083;-60
2021/05/07 08:59:44;;;;;;;8.93;7.38;;;;;;;;;;3613573;39;20139;-60
2021/05/07 09:02:09;;;;;;;10.10;7.05;;;;;;;;;;3613811;39;20039;-61
2021/05/07 09:04:35;;;;;;;7.47;6.10;;;;;;;;;;3616149;39;20092;-61
2021/05/07 09:07:11;;;;;;;7.18;6.38;;;;;;;;;;3616199;39;20035;-60
2021/05/07 09:09:49;;;;;;;10.20;7.10;;;;;;;;;;3614493;39;20031;-61
2021/05/07 09:12:24;;;;;;;10.10;7.35;;;;;;;;;;3615718;39;20611;-60
2021/05/07 09:14:49;;;;;;;9.75;6.95;;;;;;;;;;3616113;39;20031;-60
2021/05/07 09:17:19;;;;;;;9.25;7.40;;;;;;;;;;3616211;39;20362;-60
2021/05/07 09:19:45;;;;;;;7.57;6.80;;;;;;;;;;3615736;39;20477;-60
2021/05/07 09:22:10;;;;;;;13.00;7.32;;;;;;;;;;3606680;39;20023;-59
2021/05/07 09:24:38;;;;;;;13.95;8.02;;;;;;;;;;3616189;39;20051;-59
2021/05/07 09:27:07;;;;;;;8.55;7.40;;;;;;;;;;3614074;39;20043;-59
2021/05/07 09:29:35;;;;;;;11.38;6.97;;;;;;;;;;3615233;39;20590;-59
2021/05/07 09:32:02;;;;;;;9.23;7.03;;;;;;;;;;3615809;39;20043;-59
2021/05/07 09:34:34;;;;;;;12.05;7.07;;;;;;;;;;3615739;39;20124;-59
2021/05/07 09:36:59;;;;;;;8.43;6.43;;;;;;;;;;3616006;39;20313;-60
2021/05/07 09:39:26;;;;;;;6.72;5.72;;;;;;;;;;3617964;39;20039;-60
2021/05/07 09:41:53;;;;;;;10.90;5.68;;;;;;;;;;3617781;39;20267;-60
2021/05/07 09:44:21;;;;;;;10.13;7.25;;;;;;;;;;3616948;39;20065;-62
2021/05/07 09:46:48;;;;;;;7.90;6.20;;;;;;;;;;3606433;39;20038;-60
2021/05/07 09:49:26;;;;;;;13.30;7.00;;;;;;;;;;3617054;39;20067;-60
2021/05/07 09:51:51;;;;;;;8.20;6.75;;;;;;;;;;3615882;39;20398;-60
2021/05/07 09:54:17;;;;;;;12.95;7.13;;;;;;;;;;3617095;39;20039;-60
2021/05/07 09:56:43;;;;;;;7.95;6.88;;;;;;;;;;3617188;39;20064;-60
2021/05/07 09:59:10;;;;;;;13.63;7.20;;;;;;;;;;3616056;39;20035;-60
2021/05/07 10:01:35;;;;;;;11.27;7.60;;;;;;;;;;3617044;39;20239;-60
2021/05/07 10:04:01;;;;;;;8.80;6.95;;;;;;;;;;3617384;39;20449;-60
2021/05/07 10:06:28;;;;;;;10.40;7.60;;;;;;;;;;3616449;39;20081;-61
2021/05/07 10:08:53;;;;;;;12.70;2.17;;;;;;;;;;3614778;39;20034;-60
2021/05/07 10:11:22;;;;;;;4.90;2.05;;;;;;;;;;3615867;39;20290;-58
2021/05/07 10:13:50;;;;;;;4.53;1.52;;;;;;;;;;3615674;39;20039;-58
2021/05/07 10:16:27;;;;;;;3.65;1.20;;;;;;;;;;3616769;39;20560;-59
2021/05/07 10:19:03;;;;;;;2.38;1.10;;;;;;;;;;3617809;39;20031;-60
2021/05/07 10:21:37;;;;;;;3.75;1.52;;;;;;;;;;3616894;39;20317;-62
2021/05/07 10:24:04;;;;;;;3.08;1.30;;;;;;;;;;3617380;39;20052;-62
2021/05/07 10:26:35;;;;;;;3.42;1.20;;;;;;;;;;3616336;39;20050;-62
2021/05/07 10:29:00;;;;;;;2.10;1.17;;;;;;;;;;3608194;39;20277;-62
2021/05/07 10:31:26;;;;;;;1.95;1.00;;;;;;;;;;3616059;39;20068;-62
2021/05/07 10:34:02;;;;;;;2.45;1.10;;;;;;;;;;3617486;39;20043;-61
2021/05/07 10:36:38;;;;;;;3.70;1.63;;;;;;;;;;3616862;39;20273;-61
2021/05/07 10:39:20;;;;;;;3.03;1.30;;;;;;;;;;3615931;39;20365;-60
2021/05/07 10:41:46;;;;;;;2.58;1.20;;;;;;;;;;3615731;39;20043;-60
2021/05/07 10:44:13;;;;;;;3.25;1.48;;;;;;;;;;3617264;39;20646;-60
2021/05/07 10:46:40;;;;;;;2.70;1.35;;;;;;;;;;3617038;39;20064;-60
2021/05/07 10:49:05;;;;;;;2.97;1.50;;;;;;;;;;3617002;39;20041;-59
2021/05/07 10:51:31;;;;;;;3.38;1.73;;;;;;;;;;3607848;39;20384;-60
2021/05/07 10:54:06;;;;;;;2.90;1.50;;;;;;;;;;3607603;39;20116;-59
2021/05/07 10:56:36;;;;;;;4.38;1.98;;;;;;;;;;3615934;39;20035;-59
2021/05/07 10:59:14;;;;;;;4.78;2.50;;;;;;;;;;3617129;39;20035;-59
2021/05/07 11:01:41;;;;;;;5.18;3.28;;;;;;;;;;3606812;39;20037;-60
2021/05/07 11:04:13;;;;;;;4.93;3.25;;;;;;;;;;3616701;39;20115;-60
2021/05/07 11:06:45;;;;;;;7.53;4.15;;;;;;;;;;3616550;39;20074;-60
2021/05/07 11:09:19;;;;;;;8.68;5.47;;;;;;;;;;3616332;39;20050;-59
2021/05/07 11:11:46;;;;;;;5.68;3.70;;;;;;;;;;3614827;39;20046;-59
2021/05/07 11:14:24;;;;;;;6.88;3.90;;;;;;;;;;3614120;39;20264;-59
2021/05/07 11:16:51;;;;;;;4.68;3.20;;;;;;;;;;3615291;39;20055;-59
2021/05/07 11:19:23;;;;;;;6.57;5.18;;;;;;;;;;3616420;39;20362;-59
2021/05/07 11:21:56;;;;;;;4.93;3.05;;;;;;;;;;3617269;39;20031;-59
2021/05/07 11:24:23;;;;;;;4.65;3.38;;;;;;;;;;3616824;39;20067;-59
2021/05/07 11:26:49;;;;;;;6.15;3.15;;;;;;;;;;3616404;39;20046;-58
2021/05/07 11:29:27;;;;;;;5.18;3.28;;;;;;;;;;3616519;39;20023;-59
2021/05/07 11:31:53;;;;;;;4.30;2.90;;;;;;;;;;3617239;39;20035;-59
2021/05/07 11:34:26;;;;;;;4.80;3.20;;;;;;;;;;3616975;39;20104;-59
2021/05/07 11:36:59;;;;;;;4.63;2.85;;;;;;;;;;3617011;39;20047;-58
2021/05/07 11:39:25;;;;;;;4.78;3.17;;;;;;;;;;3615141;39;20266;-58
2021/05/07 11:41:51;;;;;;;3.85;2.60;;;;;;;;;;3616216;39;20039;-59
2021/05/07 11:44:16;;;;;;;3.35;2.13;;;;;;;;;;3617033;39;20052;-58
2021/05/07 11:46:41;;;;;;;6.85;2.85;;;;;;;;;;3616268;39;20619;-59
2021/05/07 11:49:07;;;;;;;4.13;2.80;;;;;;;;;;3616875;39;20354;-58
2021/05/07 11:51:34;;;;;;;11.40;3.17;;;;;;;;;;3607458;39;20034;-59
2021/05/07 11:54:00;;;;;;;6.93;3.40;;;;;;;;;;3617167;39;20310;-57
2021/05/07 11:56:26;;;;;;;7.20;2.92;;;;;;;;;;3616597;39;20039;-58
2021/05/07 11:58:53;;;;;;;5.15;3.33;;;;;;;;;;3617113;39;20047;-57
2021/05/07 12:01:20;;;;;;;6.03;3.38;;;;;;;;;;3616182;39;20043;-58
2021/05/07 12:03:47;;;;;;;5.03;3.10;;;;;;;;;;3616728;39;20405;-58
2021/05/07 12:06:17;;;;;;;6.05;3.50;;;;;;;;;;3616474;39;20030;-59
2021/05/07 12:08:43;;;;;;;4.50;2.90;;;;;;;;;;3607142;39;20043;-58
2021/05/07 12:11:10;;;;;;;4.32;2.90;;;;;;;;;;3616827;39;20039;-58
2021/05/07 12:13:36;;;;;;;3.58;2.40;;;;;;;;;;3616013;39;20035;-58
2021/05/07 12:16:02;;;;;;;4.03;3.00;;;;;;;;;;3616822;39;20120;-59
2021/05/07 12:18:28;;;;;;;5.47;3.55;;;;;;;;;;3614120;39;20038;-58
2021/05/07 12:20:55;;;;;;;4.15;2.58;;;;;;;;;;3611935;39;20072;-58
2021/05/07 12:23:21;;;;;;;4.50;3.05;;;;;;;;;;3605611;39;20083;-59
2021/05/07 12:25:47;;;;;;;5.47;2.70;;;;;;;;;;3616812;39;20105;-59
2021/05/07 12:28:22;;;;;;;5.50;3.65;;;;;;;;;;3616356;39;20115;-59
2021/05/07 12:30:48;;;;;;;3.72;2.72;;;;;;;;;;3607146;39;20041;-59
2021/05/07 12:33:25;;;;;;;4.70;2.75;;;;;;;;;;3616630;39;20019;-59
2021/05/07 12:35:58;;;;;;;4.88;2.63;;;;;;;;;;3615796;39;20020;-59
2021/05/07 12:38:27;;;;;;;5.07;2.70;;;;;;;;;;3616436;39;20079;-59
2021/05/07 12:41:12;;;;;;;5.10;2.67;;;;;;;;;;3616856;39;20042;-60
2021/05/07 12:43:42;;;;;;;4.78;3.10;;;;;;;;;;3615555;39;20153;-59
2021/05/07 12:46:08;;;;;;;4.47;2.83;;;;;;;;;;3617005;39;20059;-59
2021/05/07 12:48:34;;;;;;;9.23;2.95;;;;;;;;;;3616319;39;20070;-58
2021/05/07 12:51:01;;;;;;;4.68;2.83;;;;;;;;;;3615878;39;20035;-59
2021/05/07 12:53:27;;;;;;;5.13;2.63;;;;;;;;;;3615173;39;20092;-59
2021/05/07 12:55:52;;;;;;;7.30;2.97;;;;;;;;;;3615897;39;20059;-59
2021/05/07 12:58:18;;;;;;;5.05;3.15;;;;;;;;;;3615731;39;20591;-59
2021/05/07 13:00:44;;;;;;;4.00;2.97;;;;;;;;;;3614812;39;20039;-59
2021/05/07 13:03:10;;;;;;;4.97;3.13;;;;;;;;;;3614806;39;20039;-60
2021/05/07 13:05:37;;;;;;;4.55;2.78;;;;;;;;;;3616147;39;20093;-59
2021/05/07 13:08:02;;;;;;;4.15;2.90;;;;;;;;;;3615171;39;20053;-59
2021/05/07 13:10:28;;;;;;;3.63;2.38;;;;;;;;;;3615658;39;20101;-59
2021/05/07 13:12:57;;;;;;;3.85;2.70;;;;;;;;;;3609029;39;20051;-58
2021/05/07 13:15:24;;;;;;;2.97;2.00;;;;;;;;;;3618265;39;20039;-58
2021/05/07 13:17:50;;;;;;;2.83;1.45;;;;;;;;;;3617336;39;20045;-58
2021/05/07 13:20:16;;;;;;;3.88;1.60;;;;;;;;;;3617873;39;20038;-58
2021/05/07 13:22:42;;;;;;;4.38;1.60;;;;;;;;;;3618000;39;20083;-58
2021/05/07 13:25:08;;;;;;;3.10;1.50;;;;;;;;;;3617306;39;20036;-58
2021/05/07 13:27:34;;;;;;;2.50;1.50;;;;;;;;;;3618015;39;20115;-58
2021/05/07 13:30:00;;;;;;;2.10;1.23;;;;;;;;;;3618158;39;20056;-59
2021/05/07 13:32:25;;;;;;;2.55;1.27;;;;;;;;;;3617667;39;20035;-59
2021/05/07 13:34:51;;;;;;;2.17;1.10;;;;;;;;;;3617496;39;20074;-59
2021/05/07 13:37:17;;;;;;;2.90;1.67;;;;;;;;;;3617989;39;20039;-58
2021/05/07 13:39:44;;;;;;;4.25;2.00;;;;;;;;;;3617635;39;20135;-58
2021/05/07 13:42:10;;;;;;;2.45;1.25;;;;;;;;;;3616588;39;20124;-58
2021/05/07 13:44:35;;;;;;;5.63;1.40;;;;;;;;;;3616795;39;20031;-58
2021/05/07 13:47:00;;;;;;;2.90;1.67;;;;;;;;;;3617942;39;20031;-59
2021/05/07 13:49:26;;;;;;;2.70;1.52;;;;;;;;;;3617780;39;20043;-59
2021/05/07 13:51:55;;;;;;;2.20;1.15;;;;;;;;;;3617778;39;20294;-59
2021/05/07 13:54:20;;;;;;;2.20;1.10;;;;;;;;;;3618048;39;20075;-59
2021/05/07 13:56:50;;;;;;;2.10;1.08;;;;;;;;;;3617446;39;20379;-59
2021/05/07 13:59:19;;;;;;;2.40;1.30;;;;;;;;;;3617986;39;20038;-59
2021/05/07 14:01:46;;;;;;;3.40;1.40;;;;;;;;;;3617690;39;20046;-59
2021/05/07 14:04:12;;;;;;;2.28;1.10;;;;;;;;;;3617725;39;20039;-58
2021/05/07 14:06:38;;;;;;;2.40;1.30;;;;;;;;;;3617480;39;20047;-59
2021/05/07 14:09:06;;;;;;;2.33;1.38;;;;;;;;;;3616181;39;20397;-59
2021/05/07 14:11:32;;;;;;;2.67;1.25;;;;;;;;;;3607500;39;20120;-59
2021/05/07 14:13:58;;;;;;;2.50;1.30;;;;;;;;;;3617556;39;20031;-59
2021/05/07 14:16:23;;;;;;;2.33;1.20;;;;;;;;;;3617392;39;20123;-59
2021/05/07 14:18:49;;;;;;;3.58;2.00;;;;;;;;;;3617495;39;20043;-58
2021/05/07 14:21:14;;;;;;;2.78;1.30;;;;;;;;;;3617683;39;20027;-59
2021/05/07 14:23:41;;;;;;;3.05;1.33;;;;;;;;;;3617032;39;20023;-59
2021/05/07 14:26:06;;;;;;;2.35;1.20;;;;;;;;;;3616927;39;20038;-60
2021/05/07 14:28:32;;;;;;;3.25;1.40;;;;;;;;;;3614622;39;20090;-60
2021/05/07 14:30:57;;;;;;;3.65;1.35;;;;;;;;;;3615637;39;20047;-59
2021/05/07 14:33:22;;;;;;;2.78;1.50;;;;;;;;;;3615835;39;20059;-58
2021/05/07 14:35:50;;;;;;;2.42;1.27;;;;;;;;;;3616935;39;20043;-59